createdAt,value
2018-07-13T05:43:51.532Z,292.00
2018-07-13T05:44:53.255Z,292.00
2018-07-13T05:45:51.276Z,292.00
2018-07-13T05:46:51.311Z,296.00
2018-07-13T05:47:51.375Z,296.00
2018-07-13T05:48:51.276Z,300.00
2018-07-13T05:49:51.154Z,300.00
2018-07-13T05:50:51.912Z,300.00
2018-07-13T05:51:51.113Z,836.00
2018-07-13T11:50:30.170Z,720.00
2018-07-13T11:51:30.104Z,712.00
2018-07-13T11:52:30.067Z,700.00
2018-07-13T11:53:30.045Z,660.00
2018-07-13T11:54:30.012Z,628.00
2018-07-13T11:55:29.960Z,588.00
2018-07-13T11:56:29.938Z,528.00
2018-07-13T11:57:29.881Z,532.00
2018-07-13T11:58:29.833Z,564.00
2018-07-13T11:59:29.779Z,556.00
2018-07-13T12:00:29.775Z,532.00
2018-07-13T12:01:29.694Z,544.00
2018-07-13T12:02:29.697Z,540.00
2018-07-13T12:03:29.578Z,520.00
2018-07-13T12:04:29.526Z,528.00
2018-07-13T12:05:29.486Z,536.00
2018-07-13T12:06:29.417Z,516.00
2018-07-13T12:07:29.502Z,536.00
2018-07-13T12:08:29.826Z,544.00
2018-07-13T12:09:29.269Z,512.00
2018-07-13T12:10:29.209Z,484.00
2018-07-13T12:11:29.149Z,504.00
2018-07-13T12:12:29.144Z,560.00
2018-07-13T12:13:29.051Z,636.00
2018-07-13T12:14:29.117Z,720.00
2018-07-13T12:15:28.927Z,772.00
2018-07-13T12:16:28.900Z,788.00
2018-07-13T12:17:28.875Z,748.00
2018-07-13T12:18:28.763Z,728.00
2018-07-13T12:19:28.715Z,756.00
2018-07-13T12:20:28.684Z,792.00
2018-07-13T12:21:28.600Z,812.00
2018-07-13T12:22:28.544Z,800.00
2018-07-13T12:23:28.489Z,776.00
2018-07-13T12:24:28.426Z,768.00
2018-07-13T12:25:28.361Z,776.00
2018-07-13T12:26:28.315Z,808.00
2018-07-13T12:27:28.230Z,844.00
2018-07-13T12:28:28.164Z,852.00
2018-07-13T12:29:28.099Z,868.00
2018-07-13T12:30:28.027Z,892.00
2018-07-13T12:31:27.954Z,912.00
2018-07-13T12:32:27.947Z,888.00
2018-07-13T12:33:27.813Z,808.00
2018-07-13T12:34:27.747Z,716.00
2018-07-13T12:35:27.677Z,696.00
2018-07-13T12:36:27.624Z,612.00
2018-07-13T12:37:27.547Z,628.00
2018-07-13T12:38:27.500Z,564.00
2018-07-13T12:39:27.476Z,624.00
2018-07-13T12:40:27.419Z,712.00
2018-07-13T12:41:27.280Z,788.00
2018-07-13T12:42:27.214Z,868.00
2018-07-13T12:43:27.203Z,852.00
2018-07-13T12:44:27.100Z,844.00
2018-07-13T12:45:27.050Z,816.00
2018-07-13T12:46:26.954Z,768.00
2018-07-13T12:47:26.892Z,736.00
2018-07-13T12:48:26.826Z,712.00
2018-07-13T12:49:26.761Z,684.00
2018-07-13T12:50:26.715Z,668.00
2018-07-13T12:51:26.637Z,676.00
2018-07-13T12:52:26.572Z,624.00
2018-07-13T12:53:26.504Z,532.00
2018-07-13T12:54:26.576Z,560.00
2018-07-13T12:55:26.361Z,540.00
2018-07-13T12:56:26.332Z,500.00
2018-07-13T12:57:26.220Z,496.00
2018-07-13T12:58:26.148Z,1040.00
2018-07-13T12:59:26.190Z,1088.00
2018-07-13T13:00:26.008Z,1144.00
2018-07-13T13:01:25.930Z,1120.00
2018-07-13T13:02:25.870Z,1104.00
2018-07-13T13:03:25.785Z,1060.00
2018-07-13T13:04:25.720Z,1024.00
2018-07-13T13:05:25.690Z,972.00
2018-07-13T13:06:25.567Z,920.00
2018-07-13T13:07:25.490Z,912.00
2018-07-13T13:08:25.428Z,916.00
2018-07-13T13:09:25.338Z,920.00
2018-07-13T13:10:25.259Z,876.00
2018-07-13T13:11:25.182Z,852.00
2018-07-13T13:12:25.105Z,868.00
2018-07-13T13:13:25.031Z,868.00
2018-07-13T13:14:24.976Z,868.00
2018-07-13T13:15:25.015Z,892.00
2018-07-13T13:16:24.803Z,924.00
2018-07-13T13:17:24.727Z,952.00
2018-07-13T13:18:24.679Z,996.00
2018-07-13T13:19:24.571Z,1028.00
2018-07-13T13:20:24.504Z,1092.00
2018-07-13T13:21:24.409Z,1136.00
2018-07-13T13:22:24.329Z,1100.00
2018-07-13T13:23:24.270Z,1056.00
2018-07-13T13:24:24.172Z,988.00
2018-07-13T13:25:24.103Z,920.00
2018-07-13T13:26:24.031Z,692.00
2018-07-13T13:27:23.936Z,776.00
2018-07-13T13:28:23.862Z,752.00
2018-07-13T13:29:23.812Z,732.00
2018-07-13T13:30:23.705Z,716.00
2018-07-13T13:31:23.629Z,716.00
2018-07-13T13:32:23.568Z,724.00
2018-07-13T13:33:24.281Z,748.00
2018-07-13T13:34:23.396Z,788.00
2018-07-13T13:35:24.285Z,808.00
2018-07-13T13:36:23.251Z,780.00
2018-07-13T13:37:23.174Z,756.00
2018-07-13T13:38:23.134Z,212.00
2018-07-13T13:39:23.034Z,180.00
2018-07-13T13:40:23.758Z,176.00
2018-07-13T13:41:22.863Z,540.00
2018-07-13T13:42:23.781Z,596.00
2018-07-13T13:43:22.720Z,500.00
2018-07-13T13:44:22.665Z,500.00
2018-07-13T13:45:23.331Z,504.00
2018-07-13T13:46:22.507Z,596.00
2018-07-13T13:47:22.446Z,504.00
2018-07-13T13:48:22.371Z,504.00
2018-07-13T13:49:22.297Z,508.00
2018-07-13T13:50:22.238Z,532.00
2018-07-13T13:51:22.159Z,520.00
2018-07-13T13:52:22.095Z,532.00
2018-07-13T13:53:24.785Z,536.00
2018-07-13T13:54:21.978Z,572.00
2018-07-13T13:55:24.786Z,636.00
2018-07-13T13:56:21.876Z,672.00
2018-07-13T13:57:22.786Z,676.00
2018-07-13T13:58:21.740Z,660.00
2018-07-13T13:59:21.678Z,636.00
2018-07-13T14:00:21.612Z,780.00
2018-07-13T14:01:21.545Z,876.00
2018-07-13T14:02:21.518Z,936.00
2018-07-13T14:03:22.407Z,1020.00
2018-07-13T14:04:21.359Z,1060.00
2018-07-13T14:05:21.368Z,1148.00
2018-07-13T14:06:21.236Z,1160.00
2018-07-13T14:07:21.845Z,1108.00
2018-07-13T14:08:21.118Z,1052.00
2018-07-13T14:09:21.090Z,976.00
2018-07-13T14:10:20.974Z,844.00
2018-07-13T14:11:20.909Z,724.00
2018-07-13T14:12:23.938Z,652.00
2018-07-13T14:13:20.773Z,624.00
2018-07-13T14:14:20.733Z,608.00
2018-07-13T14:15:20.691Z,592.00
2018-07-13T14:16:20.587Z,580.00
2018-07-13T14:17:23.290Z,580.00
2018-07-13T14:18:20.459Z,568.00
2018-07-13T14:19:20.386Z,564.00
2018-07-13T14:20:20.357Z,564.00
2018-07-13T14:21:20.336Z,572.00
2018-07-13T14:22:20.198Z,568.00
2018-07-13T14:23:20.125Z,560.00
2018-07-13T14:24:20.832Z,564.00
2018-07-13T14:25:20.002Z,564.00
2018-07-13T14:26:19.986Z,568.00
2018-07-13T14:27:19.951Z,564.00
2018-07-13T14:28:19.878Z,564.00
2018-07-13T14:29:19.762Z,564.00
2018-07-13T14:30:19.828Z,580.00
2018-07-13T14:31:19.631Z,596.00
2018-07-13T14:32:19.602Z,620.00
2018-07-13T14:33:19.513Z,656.00
2018-07-13T14:34:19.464Z,700.00
2018-07-13T14:35:19.368Z,668.00
2018-07-13T14:36:19.304Z,656.00
2018-07-13T14:37:19.300Z,672.00
2018-07-13T14:38:19.195Z,684.00
2018-07-13T14:39:19.135Z,688.00
